AMC11M EGKK-EHAM
Flight info
| Callsign | AMC11M |
|---|---|
| Flight time | N/A |
| Altitude | 25000 |
| Route | FRANE M604 GASBA M197 REDFA |
| Aircraft | A20N/M-SDE2E3FGHIRWXY/LB1 |
Departure
| Time | N/A |
|---|---|
| Airport | London Gatwick Airport (EGKK) |
Arrival
| Time | 2026-05-05 17:50 |
|---|---|
| Airport | Amsterdam Airport Schiphol (EHAM) |
| Time | Latitude | Longitude | Altitude | Speed | Heading |
|---|---|---|---|---|---|
| 2026-05-05 17:44 | 52.19546 | 4.46678 | 1983 ft | 226 kts | 137° |
| 2026-05-05 17:44 | 52.18308 | 4.48210 | 1984 ft | 226 kts | 135° |
| 2026-05-05 17:45 | 52.17180 | 4.50866 | 1983 ft | 211 kts | 94° |
| 2026-05-05 17:45 | 52.17176 | 4.52424 | 1984 ft | 204 kts | 71° |
| 2026-05-05 17:45 | 52.17862 | 4.54341 | 1989 ft | 198 kts | 37° |
| 2026-05-05 17:45 | 52.19535 | 4.55483 | 1995 ft | 195 kts | 15° |
| 2026-05-05 17:46 | 52.20380 | 4.55782 | 1983 ft | 186 kts | 13° |
| 2026-05-05 17:46 | 52.21621 | 4.56235 | 1970 ft | 178 kts | 26° |
| 2026-05-05 17:46 | 52.22569 | 4.57487 | 1994 ft | 180 kts | 48° |
| 2026-05-05 17:46 | 52.23301 | 4.59108 | 2066 ft | 176 kts | 52° |
| 2026-05-05 17:47 | 52.23952 | 4.60743 | 1889 ft | 168 kts | 54° |
| 2026-05-05 17:47 | 52.24551 | 4.62319 | 1629 ft | 158 kts | 54° |
| 2026-05-05 17:47 | 52.25279 | 4.64236 | 1350 ft | 142 kts | 56° |
| 2026-05-05 17:47 | 52.25797 | 4.65599 | 1170 ft | 140 kts | 53° |
| 2026-05-05 17:48 | 52.26136 | 4.66480 | 1045 ft | 139 kts | 53° |
| 2026-05-05 17:48 | 52.26644 | 4.67807 | 854 ft | 137 kts | 52° |
| 2026-05-05 17:48 | 52.27168 | 4.69105 | 720 ft | 138 kts | 54° |
| 2026-05-05 17:48 | 52.27668 | 4.70447 | 494 ft | 136 kts | 57° |
| 2026-05-05 17:49 | 52.28160 | 4.71751 | 314 ft | 136 kts | 57° |
| 2026-05-05 17:49 | 52.28656 | 4.73050 | 131 ft | 131 kts | 56° |
| 2026-05-05 17:49 | 52.29125 | 4.74280 | 0 ft | 123 kts | 56° |
| 2026-05-05 17:49 | 52.29496 | 4.75240 | -1 ft | 73 kts | 57° |
| 2026-05-05 17:50 | 52.29714 | 4.75736 | -3 ft | 30 kts | 33° |
| 2026-05-05 17:50 | 52.29818 | 4.75832 | -3 ft | 16 kts | 27° |
| 2026-05-05 17:50 | 52.29872 | 4.75876 | -3 ft | 6 kts | 26° |
| 2026-05-05 17:50 | 52.29914 | 4.75912 | -2 ft | 7 kts | 29° |
| 2026-05-05 17:51 | 52.29959 | 4.75953 | -1 ft | 7 kts | 28° |
| 2026-05-05 17:51 | 52.29998 | 4.76003 | 0 ft | 7 kts | 53° |
| 2026-05-05 17:51 | 52.30068 | 4.76186 | -1 ft | 26 kts | 58° |
| 2026-05-05 17:51 | 52.30162 | 4.76431 | 0 ft | 24 kts | 57° |
| 2026-05-05 17:52 | 52.30221 | 4.76587 | -2 ft | 24 kts | 58° |
| 2026-05-05 17:52 | 52.30310 | 4.76815 | -1 ft | 22 kts | 56° |
| 2026-05-05 17:52 | 52.30404 | 4.77041 | 1 ft | 12 kts | 26° |
| 2026-05-05 17:52 | 52.30456 | 4.77020 | 2 ft | 13 kts | 329° |
| 2026-05-05 17:53 | 52.30544 | 4.76931 | 4 ft | 13 kts | 329° |
| 2026-05-05 17:53 | 52.30605 | 4.76832 | 6 ft | 12 kts | 296° |
| 2026-05-05 17:53 | 52.30671 | 4.76734 | 9 ft | 11 kts | 339° |
| 2026-05-05 17:53 | 52.30713 | 4.76796 | 9 ft | 9 kts | 116° |
| 2026-05-05 17:54 | 52.30715 | 4.76863 | 9 ft | 6 kts | 53° |
| 2026-05-05 17:54 | 52.30738 | 4.76905 | 9 ft | 1 kts | 47° |
| 2026-05-05 17:54 | 52.30742 | 4.76913 | 9 ft | 0 kts | 47° |